sensor_id;sensor_type;location;lat;lon;timestamp;temperature;humidity
25918;DHT22;13899;51.174;4.456;2023-09-18T00:01:36;23.20;99.90
25918;DHT22;13899;51.174;4.456;2023-09-18T00:04:05;23.20;99.90
25918;DHT22;13899;51.174;4.456;2023-09-18T00:06:30;23.30;99.90
25918;DHT22;13899;51.174;4.456;2023-09-18T00:08:56;23.40;99.90
25918;DHT22;13899;51.174;4.456;2023-09-18T00:11:21;23.40;99.90
25918;DHT22;13899;51.174;4.456;2023-09-18T00:13:47;23.40;99.90
25918;DHT22;13899;51.174;4.456;2023-09-18T00:16:13;23.40;99.90
25918;DHT22;13899;51.174;4.456;2023-09-18T00:18:38;23.50;99.90
25918;DHT22;13899;51.174;4.456;2023-09-18T00:21:04;23.50;99.90
25918;DHT22;13899;51.174;4.456;2023-09-18T00:23:32;23.40;99.90
25918;DHT22;13899;51.174;4.456;2023-09-18T00:25:57;23.30;99.90
25918;DHT22;13899;51.174;4.456;2023-09-18T00:28:23;23.30;99.90
25918;DHT22;13899;51.174;4.456;2023-09-18T00:30:49;23.30;99.90
25918;DHT22;13899;51.174;4.456;2023-09-18T00:33:15;23.30;99.90
25918;DHT22;13899;51.174;4.456;2023-09-18T00:35:44;23.20;99.90
25918;DHT22;13899;51.174;4.456;2023-09-18T00:38:10;22.90;99.90
25918;DHT22;13899;51.174;4.456;2023-09-18T00:40:36;23.00;99.90
25918;DHT22;13899;51.174;4.456;2023-09-18T00:43:01;22.90;99.90
25918;DHT22;13899;51.174;4.456;2023-09-18T00:45:27;22.20;99.90
25918;DHT22;13899;51.174;4.456;2023-09-18T00:47:53;22.00;99.90
25918;DHT22;13899;51.174;4.456;2023-09-18T00:50:19;22.00;99.90
25918;DHT22;13899;51.174;4.456;2023-09-18T00:52:45;22.30;99.90
25918;DHT22;13899;51.174;4.456;2023-09-18T00:55:10;22.40;99.90
25918;DHT22;13899;51.174;4.456;2023-09-18T00:57:37;22.20;99.90
25918;DHT22;13899;51.174;4.456;2023-09-18T01:00:03;21.90;99.90
25918;DHT22;13899;51.174;4.456;2023-09-18T01:02:30;21.70;99.90
25918;DHT22;13899;51.174;4.456;2023-09-18T01:04:56;21.30;99.90
25918;DHT22;13899;51.174;4.456;2023-09-18T01:07:22;21.00;99.90
25918;DHT22;13899;51.174;4.456;2023-09-18T01:09:48;21.00;99.90
25918;DHT22;13899;51.174;4.456;2023-09-18T01:12:34;21.00;99.90
25918;DHT22;13899;51.174;4.456;2023-09-18T01:15:02;21.00;99.90
25918;DHT22;13899;51.174;4.456;2023-09-18T01:17:34;21.00;99.90
25918;DHT22;13899;51.174;4.456;2023-09-18T01:20:00;21.00;99.90
25918;DHT22;13899;51.174;4.456;2023-09-18T01:22:28;20.80;99.90
25918;DHT22;13899;51.174;4.456;2023-09-18T01:24:54;20.80;99.90
25918;DHT22;13899;51.174;4.456;2023-09-18T01:27:20;20.80;99.90
25918;DHT22;13899;51.174;4.456;2023-09-18T01:29:45;20.80;99.90
25918;DHT22;13899;51.174;4.456;2023-09-18T01:32:11;20.70;99.90
25918;DHT22;13899;51.174;4.456;2023-09-18T01:34:38;20.60;99.90
25918;DHT22;13899;51.174;4.456;2023-09-18T01:37:07;20.70;99.90
25918;DHT22;13899;51.174;4.456;2023-09-18T01:39:34;20.70;99.90
25918;DHT22;13899;51.174;4.456;2023-09-18T01:42:00;20.60;99.90
25918;DHT22;13899;51.174;4.456;2023-09-18T01:44:30;20.60;99.90
25918;DHT22;13899;51.174;4.456;2023-09-18T01:47:00;21.00;99.90
25918;DHT22;13899;51.174;4.456;2023-09-18T01:49:31;20.90;99.90
25918;DHT22;13899;51.174;4.456;2023-09-18T01:51:57;20.80;99.90
25918;DHT22;13899;51.174;4.456;2023-09-18T01:54:23;20.90;99.90
25918;DHT22;13899;51.174;4.456;2023-09-18T01:56:48;21.10;99.90
25918;DHT22;13899;51.174;4.456;2023-09-18T01:59:14;21.10;99.90
25918;DHT22;13899;51.174;4.456;2023-09-18T02:01:39;21.00;99.90
25918;DHT22;13899;51.174;4.456;2023-09-18T02:04:05;20.90;99.90
25918;DHT22;13899;51.174;4.456;2023-09-18T02:06:31;21.10;99.90
25918;DHT22;13899;51.174;4.456;2023-09-18T02:08:56;21.20;99.90
25918;DHT22;13899;51.174;4.456;2023-09-18T02:11:22;21.40;99.90
25918;DHT22;13899;51.174;4.456;2023-09-18T02:13:47;21.40;99.90
25918;DHT22;13899;51.174;4.456;2023-09-18T02:16:13;21.30;99.90
25918;DHT22;13899;51.174;4.456;2023-09-18T02:18:38;21.30;99.90
25918;DHT22;13899;51.174;4.456;2023-09-18T02:21:04;21.30;99.90
25918;DHT22;13899;51.174;4.456;2023-09-18T02:23:29;21.60;99.90
25918;DHT22;13899;51.174;4.456;2023-09-18T02:25:58;21.80;99.90
25918;DHT22;13899;51.174;4.456;2023-09-18T02:28:24;21.80;99.90
25918;DHT22;13899;51.174;4.456;2023-09-18T02:30:49;22.10;99.90
25918;DHT22;13899;51.174;4.456;2023-09-18T02:33:15;22.10;99.90
25918;DHT22;13899;51.174;4.456;2023-09-18T02:35:41;22.40;99.90
25918;DHT22;13899;51.174;4.456;2023-09-18T02:38:08;22.50;99.90
25918;DHT22;13899;51.174;4.456;2023-09-18T02:40:34;22.30;99.90
25918;DHT22;13899;51.174;4.456;2023-09-18T02:42:59;21.70;99.90
25918;DHT22;13899;51.174;4.456;2023-09-18T02:45:25;21.00;99.90
25918;DHT22;13899;51.174;4.456;2023-09-18T02:47:50;20.60;99.90
25918;DHT22;13899;51.174;4.456;2023-09-18T02:50:16;20.40;99.90
25918;DHT22;13899;51.174;4.456;2023-09-18T02:52:41;20.20;99.90
25918;DHT22;13899;51.174;4.456;2023-09-18T02:55:07;20.20;99.90
25918;DHT22;13899;51.174;4.456;2023-09-18T02:57:35;20.10;99.90
25918;DHT22;13899;51.174;4.456;2023-09-18T03:00:00;20.00;99.90
25918;DHT22;13899;51.174;4.456;2023-09-18T03:02:26;20.10;99.90
25918;DHT22;13899;51.174;4.456;2023-09-18T03:04:51;20.20;99.90
25918;DHT22;13899;51.174;4.456;2023-09-18T03:07:17;20.10;99.90
25918;DHT22;13899;51.174;4.456;2023-09-18T03:09:42;20.20;99.90
25918;DHT22;13899;51.174;4.456;2023-09-18T03:12:08;20.40;99.90
25918;DHT22;13899;51.174;4.456;2023-09-18T03:14:34;20.60;99.90
25918;DHT22;13899;51.174;4.456;2023-09-18T03:16:59;20.70;99.90
25918;DHT22;13899;51.174;4.456;2023-09-18T03:19:25;20.60;99.90
25918;DHT22;13899;51.174;4.456;2023-09-18T03:21:52;20.40;99.90
25918;DHT22;13899;51.174;4.456;2023-09-18T03:24:17;20.70;99.90
25918;DHT22;13899;51.174;4.456;2023-09-18T03:26:43;20.50;99.90
25918;DHT22;13899;51.174;4.456;2023-09-18T03:29:09;20.50;99.90
25918;DHT22;13899;51.174;4.456;2023-09-18T03:31:35;20.50;99.90
25918;DHT22;13899;51.174;4.456;2023-09-18T03:34:00;20.50;99.90
25918;DHT22;13899;51.174;4.456;2023-09-18T03:36:26;20.30;99.90
25918;DHT22;13899;51.174;4.456;2023-09-18T03:38:52;20.50;99.90
25918;DHT22;13899;51.174;4.456;2023-09-18T03:41:17;20.60;99.90
25918;DHT22;13899;51.174;4.456;2023-09-18T03:43:43;20.90;99.90
25918;DHT22;13899;51.174;4.456;2023-09-18T03:46:08;20.80;99.90
25918;DHT22;13899;51.174;4.456;2023-09-18T03:48:34;20.40;99.90
25918;DHT22;13899;51.174;4.456;2023-09-18T03:51:03;20.20;99.90
25918;DHT22;13899;51.174;4.456;2023-09-18T03:53:29;20.10;99.90
25918;DHT22;13899;51.174;4.456;2023-09-18T03:55:55;20.00;99.90
25918;DHT22;13899;51.174;4.456;2023-09-18T03:58:20;20.10;99.90
25918;DHT22;13899;51.174;4.456;2023-09-18T04:00:46;20.00;99.90
25918;DHT22;13899;51.174;4.456;2023-09-18T04:03:11;19.90;99.90
25918;DHT22;13899;51.174;4.456;2023-09-18T04:05:37;19.80;99.90
25918;DHT22;13899;51.174;4.456;2023-09-18T04:08:03;19.80;99.90
25918;DHT22;13899;51.174;4.456;2023-09-18T04:10:28;19.70;99.90
25918;DHT22;13899;51.174;4.456;2023-09-18T04:12:54;19.80;99.90
25918;DHT22;13899;51.174;4.456;2023-09-18T04:15:20;19.80;99.90
25918;DHT22;13899;51.174;4.456;2023-09-18T04:17:45;19.80;99.90
25918;DHT22;13899;51.174;4.456;2023-09-18T04:20:11;19.80;99.90
25918;DHT22;13899;51.174;4.456;2023-09-18T04:22:41;19.90;99.90
25918;DHT22;13899;51.174;4.456;2023-09-18T04:25:07;19.80;99.90
25918;DHT22;13899;51.174;4.456;2023-09-18T04:27:32;19.80;99.90
25918;DHT22;13899;51.174;4.456;2023-09-18T04:29:58;19.80;99.90
25918;DHT22;13899;51.174;4.456;2023-09-18T04:32:27;19.80;99.90
25918;DHT22;13899;51.174;4.456;2023-09-18T04:34:52;19.80;99.90
25918;DHT22;13899;51.174;4.456;2023-09-18T04:37:18;19.80;99.90
25918;DHT22;13899;51.174;4.456;2023-09-18T04:39:43;19.90;99.90
25918;DHT22;13899;51.174;4.456;2023-09-18T04:42:10;19.90;99.90
25918;DHT22;13899;51.174;4.456;2023-09-18T04:44:35;19.90;99.90
25918;DHT22;13899;51.174;4.456;2023-09-18T04:47:01;19.90;99.90
25918;DHT22;13899;51.174;4.456;2023-09-18T04:49:26;19.80;99.90
25918;DHT22;13899;51.174;4.456;2023-09-18T04:51:53;19.90;99.90
25918;DHT22;13899;51.174;4.456;2023-09-18T04:54:18;19.90;99.90
25918;DHT22;13899;51.174;4.456;2023-09-18T04:56:44;19.90;99.90
25918;DHT22;13899;51.174;4.456;2023-09-18T04:59:10;19.80;99.90
25918;DHT22;13899;51.174;4.456;2023-09-18T05:01:36;19.80;99.90
25918;DHT22;13899;51.174;4.456;2023-09-18T05:04:01;19.80;99.90
25918;DHT22;13899;51.174;4.456;2023-09-18T05:06:27;19.80;99.90
25918;DHT22;13899;51.174;4.456;2023-09-18T05:08:54;19.70;99.90
25918;DHT22;13899;51.174;4.456;2023-09-18T05:11:19;19.70;99.90
25918;DHT22;13899;51.174;4.456;2023-09-18T05:13:45;19.70;99.90
25918;DHT22;13899;51.174;4.456;2023-09-18T05:16:11;19.80;99.90
25918;DHT22;13899;51.174;4.456;2023-09-18T05:18:37;19.60;99.90
25918;DHT22;13899;51.174;4.456;2023-09-18T05:21:03;19.60;99.90
25918;DHT22;13899;51.174;4.456;2023-09-18T05:23:30;19.70;99.90
25918;DHT22;13899;51.174;4.456;2023-09-18T05:25:55;19.60;99.90
25918;DHT22;13899;51.174;4.456;2023-09-18T05:28:21;19.50;99.90
25918;DHT22;13899;51.174;4.456;2023-09-18T05:30:47;19.60;99.90
25918;DHT22;13899;51.174;4.456;2023-09-18T05:33:12;19.50;99.90
25918;DHT22;13899;51.174;4.456;2023-09-18T05:35:42;19.40;99.90
25918;DHT22;13899;51.174;4.456;2023-09-18T05:38:08;19.50;99.90
25918;DHT22;13899;51.174;4.456;2023-09-18T05:40:35;19.50;99.90
25918;DHT22;13899;51.174;4.456;2023-09-18T05:43:00;19.40;99.90
25918;DHT22;13899;51.174;4.456;2023-09-18T05:45:26;19.40;99.90
25918;DHT22;13899;51.174;4.456;2023-09-18T05:47:52;19.40;99.90
25918;DHT22;13899;51.174;4.456;2023-09-18T05:50:29;19.30;99.90
25918;DHT22;13899;51.174;4.456;2023-09-18T05:52:55;19.20;99.90
25918;DHT22;13899;51.174;4.456;2023-09-18T05:55:24;19.30;99.90
25918;DHT22;13899;51.174;4.456;2023-09-18T05:57:50;19.20;99.90
25918;DHT22;13899;51.174;4.456;2023-09-18T06:00:16;19.20;99.90
25918;DHT22;13899;51.174;4.456;2023-09-18T06:02:43;19.20;99.90
25918;DHT22;13899;51.174;4.456;2023-09-18T06:05:09;19.20;99.90
25918;DHT22;13899;51.174;4.456;2023-09-18T06:07:36;19.10;99.90
25918;DHT22;13899;51.174;4.456;2023-09-18T06:10:02;19.10;99.90
25918;DHT22;13899;51.174;4.456;2023-09-18T06:12:28;19.10;99.90
25918;DHT22;13899;51.174;4.456;2023-09-18T06:14:54;19.00;99.90
25918;DHT22;13899;51.174;4.456;2023-09-18T06:17:20;19.00;99.90
25918;DHT22;13899;51.174;4.456;2023-09-18T06:19:45;19.00;99.90
25918;DHT22;13899;51.174;4.456;2023-09-18T06:22:11;19.00;99.90
25918;DHT22;13899;51.174;4.456;2023-09-18T06:24:37;19.00;99.90
25918;DHT22;13899;51.174;4.456;2023-09-18T06:27:03;19.10;99.90
25918;DHT22;13899;51.174;4.456;2023-09-18T06:29:29;19.10;99.90
25918;DHT22;13899;51.174;4.456;2023-09-18T06:31:55;19.10;99.90
25918;DHT22;13899;51.174;4.456;2023-09-18T06:34:21;19.00;99.90
25918;DHT22;13899;51.174;4.456;2023-09-18T06:36:46;19.00;99.90
25918;DHT22;13899;51.174;4.456;2023-09-18T06:39:12;19.10;99.90
25918;DHT22;13899;51.174;4.456;2023-09-18T06:41:37;19.10;99.90
25918;DHT22;13899;51.174;4.456;2023-09-18T06:44:03;19.10;99.90
25918;DHT22;13899;51.174;4.456;2023-09-18T06:46:29;19.00;99.90
25918;DHT22;13899;51.174;4.456;2023-09-18T06:48:55;19.00;99.90
25918;DHT22;13899;51.174;4.456;2023-09-18T06:51:21;19.00;99.90
25918;DHT22;13899;51.174;4.456;2023-09-18T06:53:47;19.00;99.90
25918;DHT22;13899;51.174;4.456;2023-09-18T06:56:12;19.00;99.90
25918;DHT22;13899;51.174;4.456;2023-09-18T06:58:38;19.00;99.90
25918;DHT22;13899;51.174;4.456;2023-09-18T07:01:04;19.10;99.90
25918;DHT22;13899;51.174;4.456;2023-09-18T07:03:32;19.00;99.90
25918;DHT22;13899;51.174;4.456;2023-09-18T07:06:00;19.00;99.90
25918;DHT22;13899;51.174;4.456;2023-09-18T07:08:25;19.00;99.90
25918;DHT22;13899;51.174;4.456;2023-09-18T07:10:51;19.00;99.90
25918;DHT22;13899;51.174;4.456;2023-09-18T07:13:16;18.90;99.90
25918;DHT22;13899;51.174;4.456;2023-09-18T07:15:42;18.90;99.90
25918;DHT22;13899;51.174;4.456;2023-09-18T07:18:09;19.10;99.90
25918;DHT22;13899;51.174;4.456;2023-09-18T07:20:35;19.00;99.90
25918;DHT22;13899;51.174;4.456;2023-09-18T07:23:01;19.00;99.90
25918;DHT22;13899;51.174;4.456;2023-09-18T07:25:27;19.00;99.90
25918;DHT22;13899;51.174;4.456;2023-09-18T07:27:52;19.00;99.90
25918;DHT22;13899;51.174;4.456;2023-09-18T07:30:17;19.00;99.90
25918;DHT22;13899;51.174;4.456;2023-09-18T07:32:45;18.90;99.90
25918;DHT22;13899;51.174;4.456;2023-09-18T07:35:11;18.80;99.90
25918;DHT22;13899;51.174;4.456;2023-09-18T07:37:39;18.80;99.90
25918;DHT22;13899;51.174;4.456;2023-09-18T07:40:05;19.00;99.90
25918;DHT22;13899;51.174;4.456;2023-09-18T07:42:31;19.20;99.90
25918;DHT22;13899;51.174;4.456;2023-09-18T07:44:57;19.40;99.90
25918;DHT22;13899;51.174;4.456;2023-09-18T07:47:23;19.40;99.90
25918;DHT22;13899;51.174;4.456;2023-09-18T07:49:49;19.30;99.90
25918;DHT22;13899;51.174;4.456;2023-09-18T07:52:14;19.40;99.90
25918;DHT22;13899;51.174;4.456;2023-09-18T07:54:41;19.70;99.90
25918;DHT22;13899;51.174;4.456;2023-09-18T07:57:06;19.90;99.90
25918;DHT22;13899;51.174;4.456;2023-09-18T07:59:37;20.10;99.90
25918;DHT22;13899;51.174;4.456;2023-09-18T08:02:04;19.90;99.90
25918;DHT22;13899;51.174;4.456;2023-09-18T08:04:31;19.70;99.90
25918;DHT22;13899;51.174;4.456;2023-09-18T08:06:56;19.80;99.90
25918;DHT22;13899;51.174;4.456;2023-09-18T08:09:22;20.10;99.90
25918;DHT22;13899;51.174;4.456;2023-09-18T08:11:47;20.10;99.90
25918;DHT22;13899;51.174;4.456;2023-09-18T08:14:15;20.10;99.90
25918;DHT22;13899;51.174;4.456;2023-09-18T08:16:40;20.10;99.90
25918;DHT22;13899;51.174;4.456;2023-09-18T08:19:06;19.90;99.90
25918;DHT22;13899;51.174;4.456;2023-09-18T08:21:32;19.90;99.90
25918;DHT22;13899;51.174;4.456;2023-09-18T08:23:58;19.90;99.90
25918;DHT22;13899;51.174;4.456;2023-09-18T08:26:24;19.70;99.90
25918;DHT22;13899;51.174;4.456;2023-09-18T08:28:50;19.70;99.90
25918;DHT22;13899;51.174;4.456;2023-09-18T08:31:16;19.80;99.90
25918;DHT22;13899;51.174;4.456;2023-09-18T08:33:44;19.90;99.90
25918;DHT22;13899;51.174;4.456;2023-09-18T08:36:10;19.90;99.90
25918;DHT22;13899;51.174;4.456;2023-09-18T08:38:35;20.00;99.90
25918;DHT22;13899;51.174;4.456;2023-09-18T08:41:01;20.00;99.90
25918;DHT22;13899;51.174;4.456;2023-09-18T08:43:28;20.20;99.90
25918;DHT22;13899;51.174;4.456;2023-09-18T08:45:54;20.20;99.90
25918;DHT22;13899;51.174;4.456;2023-09-18T08:48:21;20.10;99.90
25918;DHT22;13899;51.174;4.456;2023-09-18T08:50:47;20.30;99.90
25918;DHT22;13899;51.174;4.456;2023-09-18T08:53:12;20.50;99.90
25918;DHT22;13899;51.174;4.456;2023-09-18T08:55:38;20.70;99.90
25918;DHT22;13899;51.174;4.456;2023-09-18T08:58:05;20.50;99.90
25918;DHT22;13899;51.174;4.456;2023-09-18T09:00:31;20.60;99.90
25918;DHT22;13899;51.174;4.456;2023-09-18T09:02:56;20.30;99.90
25918;DHT22;13899;51.174;4.456;2023-09-18T09:05:22;20.00;99.90
25918;DHT22;13899;51.174;4.456;2023-09-18T09:07:48;20.00;99.90
25918;DHT22;13899;51.174;4.456;2023-09-18T09:10:14;20.10;99.90
25918;DHT22;13899;51.174;4.456;2023-09-18T09:15:43;20.30;99.90
25918;DHT22;13899;51.174;4.456;2023-09-18T09:18:11;20.10;99.90
25918;DHT22;13899;51.174;4.456;2023-09-18T09:20:37;20.10;99.90
25918;DHT22;13899;51.174;4.456;2023-09-18T09:23:03;20.00;99.90
25918;DHT22;13899;51.174;4.456;2023-09-18T09:25:30;20.00;99.90
25918;DHT22;13899;51.174;4.456;2023-09-18T09:27:59;19.80;99.90
25918;DHT22;13899;51.174;4.456;2023-09-18T09:30:26;19.90;99.90
25918;DHT22;13899;51.174;4.456;2023-09-18T09:32:53;19.90;99.90
25918;DHT22;13899;51.174;4.456;2023-09-18T09:35:22;20.00;99.90
25918;DHT22;13899;51.174;4.456;2023-09-18T09:37:49;20.00;99.90
25918;DHT22;13899;51.174;4.456;2023-09-18T09:40:16;19.80;99.90
25918;DHT22;13899;51.174;4.456;2023-09-18T09:42:44;19.90;99.90
25918;DHT22;13899;51.174;4.456;2023-09-18T09:45:11;19.80;99.90
25918;DHT22;13899;51.174;4.456;2023-09-18T09:47:37;19.80;99.90
25918;DHT22;13899;51.174;4.456;2023-09-18T09:50:06;19.90;99.90
25918;DHT22;13899;51.174;4.456;2023-09-18T09:52:33;19.90;99.90
25918;DHT22;13899;51.174;4.456;2023-09-18T09:54:59;20.00;99.90
25918;DHT22;13899;51.174;4.456;2023-09-18T09:57:24;20.10;99.90
25918;DHT22;13899;51.174;4.456;2023-09-18T09:59:50;20.10;99.90
25918;DHT22;13899;51.174;4.456;2023-09-18T10:02:15;20.20;99.90
25918;DHT22;13899;51.174;4.456;2023-09-18T10:04:45;20.30;99.90
25918;DHT22;13899;51.174;4.456;2023-09-18T10:07:13;20.40;99.90
25918;DHT22;13899;51.174;4.456;2023-09-18T10:09:41;20.40;99.90
25918;DHT22;13899;51.174;4.456;2023-09-18T10:12:11;20.50;99.90
25918;DHT22;13899;51.174;4.456;2023-09-18T10:14:37;20.40;99.90
25918;DHT22;13899;51.174;4.456;2023-09-18T10:17:25;20.40;99.90
25918;DHT22;13899;51.174;4.456;2023-09-18T10:22:51;20.40;99.90
25918;DHT22;13899;51.174;4.456;2023-09-18T10:25:23;20.30;99.90
25918;DHT22;13899;51.174;4.456;2023-09-18T10:27:50;20.50;99.90
25918;DHT22;13899;51.174;4.456;2023-09-18T10:30:19;20.70;99.90
25918;DHT22;13899;51.174;4.456;2023-09-18T10:32:44;20.50;99.90
25918;DHT22;13899;51.174;4.456;2023-09-18T10:35:14;20.60;99.90
25918;DHT22;13899;51.174;4.456;2023-09-18T10:37:39;20.40;99.90
25918;DHT22;13899;51.174;4.456;2023-09-18T10:40:07;20.30;99.90
25918;DHT22;13899;51.174;4.456;2023-09-18T10:42:34;20.70;99.90
25918;DHT22;13899;51.174;4.456;2023-09-18T10:45:00;20.60;99.90
25918;DHT22;13899;51.174;4.456;2023-09-18T10:47:25;20.50;99.90
25918;DHT22;13899;51.174;4.456;2023-09-18T10:49:52;20.50;99.90
25918;DHT22;13899;51.174;4.456;2023-09-18T10:52:17;20.60;99.90
25918;DHT22;13899;51.174;4.456;2023-09-18T10:54:43;20.70;99.90
25918;DHT22;13899;51.174;4.456;2023-09-18T10:57:09;20.70;99.90
25918;DHT22;13899;51.174;4.456;2023-09-18T10:59:42;20.60;99.90
25918;DHT22;13899;51.174;4.456;2023-09-18T11:02:08;20.60;99.90
25918;DHT22;13899;51.174;4.456;2023-09-18T11:04:33;20.70;99.90
25918;DHT22;13899;51.174;4.456;2023-09-18T11:09:25;21.10;99.90
25918;DHT22;13899;51.174;4.456;2023-09-18T11:12:15;20.80;99.90
25918;DHT22;13899;51.174;4.456;2023-09-18T11:20:05;23.10;99.90
25918;DHT22;13899;51.174;4.456;2023-09-18T11:22:37;22.80;99.90
25918;DHT22;13899;51.174;4.456;2023-09-18T11:27:52;22.10;99.90
25918;DHT22;13899;51.174;4.456;2023-09-18T11:30:19;21.70;99.90
25918;DHT22;13899;51.174;4.456;2023-09-18T11:32:45;22.10;99.90
25918;DHT22;13899;51.174;4.456;2023-09-18T11:35:10;21.70;99.90
25918;DHT22;13899;51.174;4.456;2023-09-18T11:37:37;21.40;99.90
25918;DHT22;13899;51.174;4.456;2023-09-18T11:40:03;21.60;99.90
25918;DHT22;13899;51.174;4.456;2023-09-18T11:42:30;21.60;99.90
25918;DHT22;13899;51.174;4.456;2023-09-18T11:44:55;21.60;99.90
25918;DHT22;13899;51.174;4.456;2023-09-18T11:47:24;21.40;99.90
25918;DHT22;13899;51.174;4.456;2023-09-18T11:49:56;21.30;99.90
25918;DHT22;13899;51.174;4.456;2023-09-18T11:52:26;22.50;99.90
25918;DHT22;13899;51.174;4.456;2023-09-18T11:54:53;23.90;99.90
25918;DHT22;13899;51.174;4.456;2023-09-18T11:57:19;25.70;99.90
25918;DHT22;13899;51.174;4.456;2023-09-18T11:59:45;25.80;99.90
25918;DHT22;13899;51.174;4.456;2023-09-18T12:02:12;25.60;99.90
25918;DHT22;13899;51.174;4.456;2023-09-18T12:04:46;25.20;99.90
25918;DHT22;13899;51.174;4.456;2023-09-18T12:07:12;24.80;99.90
25918;DHT22;13899;51.174;4.456;2023-09-18T12:09:38;24.70;99.90
25918;DHT22;13899;51.174;4.456;2023-09-18T12:12:05;25.00;99.90
25918;DHT22;13899;51.174;4.456;2023-09-18T12:14:32;25.10;99.90
25918;DHT22;13899;51.174;4.456;2023-09-18T12:16:59;25.30;99.90
25918;DHT22;13899;51.174;4.456;2023-09-18T12:19:24;25.60;99.90
25918;DHT22;13899;51.174;4.456;2023-09-18T12:21:51;25.50;99.90
25918;DHT22;13899;51.174;4.456;2023-09-18T12:24:25;25.60;99.90
25918;DHT22;13899;51.174;4.456;2023-09-18T12:26:52;25.50;99.90
25918;DHT22;13899;51.174;4.456;2023-09-18T12:29:18;25.80;99.90
25918;DHT22;13899;51.174;4.456;2023-09-18T12:31:44;27.00;99.90
25918;DHT22;13899;51.174;4.456;2023-09-18T12:34:20;26.00;99.90
25918;DHT22;13899;51.174;4.456;2023-09-18T12:36:49;26.40;99.90
25918;DHT22;13899;51.174;4.456;2023-09-18T12:39:16;26.10;99.90
25918;DHT22;13899;51.174;4.456;2023-09-18T12:41:43;26.00;99.90
25918;DHT22;13899;51.174;4.456;2023-09-18T12:44:09;26.50;99.90
25918;DHT22;13899;51.174;4.456;2023-09-18T12:46:35;26.60;99.90
25918;DHT22;13899;51.174;4.456;2023-09-18T12:49:15;25.40;99.90
25918;DHT22;13899;51.174;4.456;2023-09-18T12:51:41;24.20;99.90
25918;DHT22;13899;51.174;4.456;2023-09-18T12:54:06;24.80;99.90
25918;DHT22;13899;51.174;4.456;2023-09-18T12:56:32;24.20;99.90
25918;DHT22;13899;51.174;4.456;2023-09-18T12:58:58;24.00;99.90
25918;DHT22;13899;51.174;4.456;2023-09-18T13:01:24;24.40;99.90
25918;DHT22;13899;51.174;4.456;2023-09-18T13:03:53;25.10;99.90
25918;DHT22;13899;51.174;4.456;2023-09-18T13:06:19;25.00;99.90
25918;DHT22;13899;51.174;4.456;2023-09-18T13:08:45;24.70;99.90
25918;DHT22;13899;51.174;4.456;2023-09-18T13:11:11;25.60;99.90
25918;DHT22;13899;51.174;4.456;2023-09-18T13:13:37;25.80;99.90
25918;DHT22;13899;51.174;4.456;2023-09-18T13:16:06;26.20;99.90
25918;DHT22;13899;51.174;4.456;2023-09-18T13:18:34;26.80;99.90
25918;DHT22;13899;51.174;4.456;2023-09-18T13:20:59;27.00;99.90
25918;DHT22;13899;51.174;4.456;2023-09-18T13:23:29;26.70;99.90
25918;DHT22;13899;51.174;4.456;2023-09-18T13:25:58;27.10;99.90
25918;DHT22;13899;51.174;4.456;2023-09-18T13:28:24;27.00;99.90
25918;DHT22;13899;51.174;4.456;2023-09-18T13:30:50;26.70;99.90
25918;DHT22;13899;51.174;4.456;2023-09-18T13:33:15;25.10;99.90
25918;DHT22;13899;51.174;4.456;2023-09-18T13:35:42;24.60;99.90
25918;DHT22;13899;51.174;4.456;2023-09-18T13:38:08;25.70;99.90
25918;DHT22;13899;51.174;4.456;2023-09-18T13:40:40;25.30;99.90
25918;DHT22;13899;51.174;4.456;2023-09-18T13:43:07;24.80;99.90
25918;DHT22;13899;51.174;4.456;2023-09-18T13:45:33;24.50;99.90
25918;DHT22;13899;51.174;4.456;2023-09-18T13:48:02;24.10;99.90
25918;DHT22;13899;51.174;4.456;2023-09-18T13:50:28;24.20;99.90
25918;DHT22;13899;51.174;4.456;2023-09-18T13:52:53;24.30;99.90
25918;DHT22;13899;51.174;4.456;2023-09-18T13:55:19;24.20;99.90
25918;DHT22;13899;51.174;4.456;2023-09-18T13:57:45;24.20;99.90
25918;DHT22;13899;51.174;4.456;2023-09-18T14:00:10;24.10;99.90
25918;DHT22;13899;51.174;4.456;2023-09-18T14:02:37;24.20;99.90
25918;DHT22;13899;51.174;4.456;2023-09-18T14:05:03;24.20;99.90
25918;DHT22;13899;51.174;4.456;2023-09-18T14:07:29;23.70;99.90
25918;DHT22;13899;51.174;4.456;2023-09-18T14:09:54;23.80;99.90
25918;DHT22;13899;51.174;4.456;2023-09-18T14:12:20;23.60;99.90
25918;DHT22;13899;51.174;4.456;2023-09-18T14:14:46;23.50;99.90
25918;DHT22;13899;51.174;4.456;2023-09-18T14:17:11;23.50;99.90
25918;DHT22;13899;51.174;4.456;2023-09-18T14:19:37;23.60;99.90
25918;DHT22;13899;51.174;4.456;2023-09-18T14:22:05;23.60;99.90
25918;DHT22;13899;51.174;4.456;2023-09-18T14:24:31;23.50;99.90
25918;DHT22;13899;51.174;4.456;2023-09-18T14:27:00;22.80;99.90
25918;DHT22;13899;51.174;4.456;2023-09-18T14:29:25;21.30;99.90
25918;DHT22;13899;51.174;4.456;2023-09-18T14:31:51;19.30;99.90
25918;DHT22;13899;51.174;4.456;2023-09-18T14:34:17;18.30;99.90
25918;DHT22;13899;51.174;4.456;2023-09-18T14:36:43;17.80;99.90
25918;DHT22;13899;51.174;4.456;2023-09-18T14:39:09;17.80;99.90
25918;DHT22;13899;51.174;4.456;2023-09-18T14:41:38;17.70;99.90
25918;DHT22;13899;51.174;4.456;2023-09-18T14:44:04;17.70;99.90
25918;DHT22;13899;51.174;4.456;2023-09-18T14:46:30;18.30;99.90
25918;DHT22;13899;51.174;4.456;2023-09-18T14:48:59;18.50;99.90
25918;DHT22;13899;51.174;4.456;2023-09-18T14:51:24;18.80;99.90
25918;DHT22;13899;51.174;4.456;2023-09-18T14:53:50;18.80;99.90
25918;DHT22;13899;51.174;4.456;2023-09-18T14:56:15;19.00;99.90
25918;DHT22;13899;51.174;4.456;2023-09-18T14:58:41;19.00;99.90
25918;DHT22;13899;51.174;4.456;2023-09-18T15:01:09;19.20;99.90
25918;DHT22;13899;51.174;4.456;2023-09-18T15:03:35;19.30;99.90
25918;DHT22;13899;51.174;4.456;2023-09-18T15:06:00;19.30;99.90
25918;DHT22;13899;51.174;4.456;2023-09-18T15:08:27;19.30;99.90
25918;DHT22;13899;51.174;4.456;2023-09-18T15:10:52;19.30;99.90
25918;DHT22;13899;51.174;4.456;2023-09-18T15:13:18;19.00;99.90
25918;DHT22;13899;51.174;4.456;2023-09-18T15:15:43;18.90;99.90
25918;DHT22;13899;51.174;4.456;2023-09-18T15:18:09;19.00;99.90
25918;DHT22;13899;51.174;4.456;2023-09-18T15:20:35;19.00;99.90
25918;DHT22;13899;51.174;4.456;2023-09-18T15:23:00;19.20;99.90
25918;DHT22;13899;51.174;4.456;2023-09-18T15:25:26;19.40;99.90
25918;DHT22;13899;51.174;4.456;2023-09-18T15:27:52;19.60;99.90
25918;DHT22;13899;51.174;4.456;2023-09-18T15:30:17;19.80;99.90
25918;DHT22;13899;51.174;4.456;2023-09-18T15:32:50;19.90;99.90
25918;DHT22;13899;51.174;4.456;2023-09-18T15:35:16;20.30;99.90
25918;DHT22;13899;51.174;4.456;2023-09-18T15:37:42;20.10;99.90
25918;DHT22;13899;51.174;4.456;2023-09-18T15:40:08;19.90;99.90
25918;DHT22;13899;51.174;4.456;2023-09-18T15:42:34;20.20;99.90